Atlantic City, New Jersey
Current Conditions -  °F | °C
As of 3:54 AM on Thursday 18 Dec 2014 (Local Time) from KACY Reporting Station
Clear Clear  
Wind Chill: 25°   Ceiling: Unl
Heat Index: 33°   Visibility: 10mi
Dew Point: 23°   Wind: 9mph
Humidity: 66%   Direction: 290°WNW
Pressure: 29.99"   Gusts: NA
Location:  39.36°N, 74.43°W
Report Text: KACY 180854Z 29008KT 10SM CLR 01/M05 A2999 RMK AO2 SLP156 T00061050 50006
Loading
Personal Weather Stations






























Interactive Weather Map New forecast layout! Learn more

10-Day Weather Forecast

Advertisements
Track Severe Weather on mobile